sensor_id;sensor_type;location;lat;lon;timestamp;pressure;altitude;pressure_sealevel;temperature;humidity
58622;BME280;44389;51.578;5.456;2023-03-15T00:01:15;101125.97;;;1.17;100.00
58622;BME280;44389;51.578;5.456;2023-03-15T00:03:43;101128.41;;;1.15;100.00
58622;BME280;44389;51.578;5.456;2023-03-15T00:06:09;101120.88;;;1.05;100.00
58622;BME280;44389;51.578;5.456;2023-03-15T00:08:34;101129.28;;;1.04;100.00
58622;BME280;44389;51.578;5.456;2023-03-15T00:11:00;101111.41;;;1.02;100.00
58622;BME280;44389;51.578;5.456;2023-03-15T00:13:26;101111.16;;;0.99;100.00
58622;BME280;44389;51.578;5.456;2023-03-15T00:15:55;101115.47;;;1.00;100.00
58622;BME280;44389;51.578;5.456;2023-03-15T00:18:21;101109.53;;;1.00;100.00
58622;BME280;44389;51.578;5.456;2023-03-15T00:20:46;101113.59;;;0.97;100.00
58622;BME280;44389;51.578;5.456;2023-03-15T00:23:13;101107.00;;;1.00;100.00
58622;BME280;44389;51.578;5.456;2023-03-15T00:25:38;101110.94;;;0.96;100.00
58622;BME280;44389;51.578;5.456;2023-03-15T00:28:04;101110.94;;;0.96;100.00
58622;BME280;44389;51.578;5.456;2023-03-15T00:30:30;101115.69;;;0.91;100.00
58622;BME280;44389;51.578;5.456;2023-03-15T00:32:55;101119.78;;;0.89;100.00
58622;BME280;44389;51.578;5.456;2023-03-15T00:35:21;101114.56;;;0.88;100.00
58622;BME280;44389;51.578;5.456;2023-03-15T00:37:48;101112.69;;;0.85;100.00
58622;BME280;44389;51.578;5.456;2023-03-15T00:40:13;101119.31;;;0.83;100.00
58622;BME280;44389;51.578;5.456;2023-03-15T00:42:39;101120.31;;;0.85;100.00
58622;BME280;44389;51.578;5.456;2023-03-15T00:45:05;101112.59;;;0.84;100.00
58622;BME280;44389;51.578;5.456;2023-03-15T00:47:30;101106.09;;;0.87;100.00
58622;BME280;44389;51.578;5.456;2023-03-15T00:49:55;101108.50;;;0.86;100.00
58622;BME280;44389;51.578;5.456;2023-03-15T00:52:21;101111.38;;;0.90;100.00
58622;BME280;44389;51.578;5.456;2023-03-15T00:54:54;101114.81;;;0.91;100.00
58622;BME280;44389;51.578;5.456;2023-03-15T00:57:20;101118.47;;;0.94;100.00
58622;BME280;44389;51.578;5.456;2023-03-15T00:59:45;101124.31;;;0.93;100.00
58622;BME280;44389;51.578;5.456;2023-03-15T01:02:11;101123.75;;;0.97;100.00
58622;BME280;44389;51.578;5.456;2023-03-15T01:04:37;101126.50;;;1.01;100.00
58622;BME280;44389;51.578;5.456;2023-03-15T01:07:03;101124.19;;;1.04;100.00
58622;BME280;44389;51.578;5.456;2023-03-15T01:09:28;101130.38;;;1.07;100.00
58622;BME280;44389;51.578;5.456;2023-03-15T01:11:56;101133.13;;;1.10;100.00
58622;BME280;44389;51.578;5.456;2023-03-15T01:14:21;101135.00;;;1.13;100.00
58622;BME280;44389;51.578;5.456;2023-03-15T01:16:46;101132.56;;;1.14;100.00
58622;BME280;44389;51.578;5.456;2023-03-15T01:19:12;101135.22;;;1.16;100.00
58622;BME280;44389;51.578;5.456;2023-03-15T01:21:37;101139.22;;;1.24;100.00
58622;BME280;44389;51.578;5.456;2023-03-15T01:24:03;101141.28;;;1.30;100.00
58622;BME280;44389;51.578;5.456;2023-03-15T01:26:28;101141.84;;;1.26;100.00
58622;BME280;44389;51.578;5.456;2023-03-15T01:28:54;101149.56;;;1.27;100.00
58622;BME280;44389;51.578;5.456;2023-03-15T01:31:22;101138.31;;;1.24;100.00
58622;BME280;44389;51.578;5.456;2023-03-15T01:33:48;101146.06;;;1.25;100.00
58622;BME280;44389;51.578;5.456;2023-03-15T01:36:14;101152.88;;;1.26;100.00
58622;BME280;44389;51.578;5.456;2023-03-15T01:38:39;101149.69;;;1.29;100.00
58622;BME280;44389;51.578;5.456;2023-03-15T01:41:05;101160.94;;;1.33;100.00
58622;BME280;44389;51.578;5.456;2023-03-15T01:43:32;101156.88;;;1.35;100.00
58622;BME280;44389;51.578;5.456;2023-03-15T01:49:04;101160.84;;;1.43;100.00
58622;BME280;44389;51.578;5.456;2023-03-15T01:51:45;101167.59;;;1.42;100.00
58622;BME280;44389;51.578;5.456;2023-03-15T01:56:44;101185.13;;;1.39;100.00
58622;BME280;44389;51.578;5.456;2023-03-15T01:59:15;101185.78;;;1.13;100.00
58622;BME280;44389;51.578;5.456;2023-03-15T02:01:43;101182.78;;;1.07;100.00
58622;BME280;44389;51.578;5.456;2023-03-15T02:04:12;101194.81;;;0.97;100.00
58622;BME280;44389;51.578;5.456;2023-03-15T02:06:39;101193.59;;;0.92;100.00
58622;BME280;44389;51.578;5.456;2023-03-15T02:09:11;101195.91;;;0.89;100.00
58622;BME280;44389;51.578;5.456;2023-03-15T02:11:39;101191.91;;;0.81;100.00
58622;BME280;44389;51.578;5.456;2023-03-15T02:14:06;101204.25;;;0.76;100.00
58622;BME280;44389;51.578;5.456;2023-03-15T02:16:32;101208.44;;;0.76;100.00
58622;BME280;44389;51.578;5.456;2023-03-15T02:18:58;101205.69;;;0.73;100.00
58622;BME280;44389;51.578;5.456;2023-03-15T02:21:32;101210.00;;;0.74;100.00
58622;BME280;44389;51.578;5.456;2023-03-15T02:24:18;101210.09;;;0.75;100.00
58622;BME280;44389;51.578;5.456;2023-03-15T02:26:54;101205.59;;;0.83;100.00
58622;BME280;44389;51.578;5.456;2023-03-15T02:29:21;101206.56;;;0.85;100.00
58622;BME280;44389;51.578;5.456;2023-03-15T02:31:47;101206.56;;;0.85;100.00
58622;BME280;44389;51.578;5.456;2023-03-15T02:34:13;101210.66;;;0.83;100.00
58622;BME280;44389;51.578;5.456;2023-03-15T02:36:38;101205.81;;;0.86;100.00
58622;BME280;44389;51.578;5.456;2023-03-15T02:39:15;101208.59;;;0.89;100.00
58622;BME280;44389;51.578;5.456;2023-03-15T02:41:43;101194.59;;;0.94;100.00
58622;BME280;44389;51.578;5.456;2023-03-15T02:44:14;101203.72;;;0.92;100.00
58622;BME280;44389;51.578;5.456;2023-03-15T02:46:41;101208.03;;;0.93;100.00
58622;BME280;44389;51.578;5.456;2023-03-15T02:49:08;101197.34;;;0.97;100.00
58622;BME280;44389;51.578;5.456;2023-03-15T02:51:34;101207.72;;;1.01;100.00
58622;BME280;44389;51.578;5.456;2023-03-15T02:53:59;101209.50;;;1.02;100.00
58622;BME280;44389;51.578;5.456;2023-03-15T02:56:24;101219.88;;;1.05;100.00
58622;BME280;44389;51.578;5.456;2023-03-15T02:58:50;101215.78;;;1.07;100.00
58622;BME280;44389;51.578;5.456;2023-03-15T03:01:16;101215.13;;;1.09;100.00
58622;BME280;44389;51.578;5.456;2023-03-15T03:03:44;101220.31;;;1.11;100.00
58622;BME280;44389;51.578;5.456;2023-03-15T03:06:11;101228.19;;;1.14;100.00
58622;BME280;44389;51.578;5.456;2023-03-15T03:08:36;101235.25;;;1.18;100.00
58622;BME280;44389;51.578;5.456;2023-03-15T03:11:02;101235.25;;;1.18;100.00
58622;BME280;44389;51.578;5.456;2023-03-15T03:13:27;101239.56;;;1.19;100.00
58622;BME280;44389;51.578;5.456;2023-03-15T03:15:53;101248.03;;;1.20;100.00
58622;BME280;44389;51.578;5.456;2023-03-15T03:18:28;101255.44;;;1.17;100.00
58622;BME280;44389;51.578;5.456;2023-03-15T03:20:55;101263.72;;;1.14;100.00
58622;BME280;44389;51.578;5.456;2023-03-15T03:23:21;101261.94;;;1.13;100.00
58622;BME280;44389;51.578;5.456;2023-03-15T03:25:50;101266.81;;;1.10;100.00
58622;BME280;44389;51.578;5.456;2023-03-15T03:28:15;101264.13;;;1.08;100.00
58622;BME280;44389;51.578;5.456;2023-03-15T03:30:40;101270.41;;;1.02;100.00
58622;BME280;44389;51.578;5.456;2023-03-15T03:33:05;101274.25;;;0.96;100.00
58622;BME280;44389;51.578;5.456;2023-03-15T03:35:31;101281.41;;;0.90;100.00
58622;BME280;44389;51.578;5.456;2023-03-15T03:37:56;101282.59;;;0.84;100.00
58622;BME280;44389;51.578;5.456;2023-03-15T03:40:22;101283.69;;;0.75;100.00
58622;BME280;44389;51.578;5.456;2023-03-15T03:42:47;101281.44;;;0.68;100.00
58622;BME280;44389;51.578;5.456;2023-03-15T03:45:12;101291.25;;;0.63;100.00
58622;BME280;44389;51.578;5.456;2023-03-15T03:47:37;101294.28;;;0.59;100.00
58622;BME280;44389;51.578;5.456;2023-03-15T03:50:03;101297.13;;;0.52;100.00
58622;BME280;44389;51.578;5.456;2023-03-15T03:52:28;101300.06;;;0.46;100.00
58622;BME280;44389;51.578;5.456;2023-03-15T03:54:54;101302.16;;;0.40;100.00
58622;BME280;44389;51.578;5.456;2023-03-15T03:57:19;101306.84;;;0.36;100.00
58622;BME280;44389;51.578;5.456;2023-03-15T03:59:44;101304.72;;;0.30;100.00
58622;BME280;44389;51.578;5.456;2023-03-15T04:02:09;101308.56;;;0.25;100.00
58622;BME280;44389;51.578;5.456;2023-03-15T04:04:35;101311.47;;;0.19;100.00
58622;BME280;44389;51.578;5.456;2023-03-15T04:07:00;101317.19;;;0.16;100.00
58622;BME280;44389;51.578;5.456;2023-03-15T04:09:25;101317.81;;;0.14;100.00
58622;BME280;44389;51.578;5.456;2023-03-15T04:11:51;101316.84;;;0.12;100.00
58622;BME280;44389;51.578;5.456;2023-03-15T04:14:16;101319.88;;;0.08;100.00
58622;BME280;44389;51.578;5.456;2023-03-15T04:16:41;101328.00;;;0.04;100.00
58622;BME280;44389;51.578;5.456;2023-03-15T04:19:07;101338.88;;;0.03;100.00
58622;BME280;44389;51.578;5.456;2023-03-15T04:21:33;101342.75;;;-0.03;100.00
58622;BME280;44389;51.578;5.456;2023-03-15T04:23:59;101346.56;;;-0.08;100.00
58622;BME280;44389;51.578;5.456;2023-03-15T04:26:25;101352.00;;;-0.13;100.00
58622;BME280;44389;51.578;5.456;2023-03-15T04:28:55;101350.84;;;-0.17;100.00
58622;BME280;44389;51.578;5.456;2023-03-15T04:31:21;101359.09;;;-0.20;100.00
58622;BME280;44389;51.578;5.456;2023-03-15T04:33:51;101358.09;;;-0.22;100.00
58622;BME280;44389;51.578;5.456;2023-03-15T04:36:17;101367.22;;;-0.24;100.00
58622;BME280;44389;51.578;5.456;2023-03-15T04:38:44;101370.66;;;-0.34;100.00
58622;BME280;44389;51.578;5.456;2023-03-15T04:41:11;101370.66;;;-0.23;100.00
58622;BME280;44389;51.578;5.456;2023-03-15T04:43:36;101370.66;;;-0.34;100.00
58622;BME280;44389;51.578;5.456;2023-03-15T04:46:01;101372.69;;;-0.40;100.00
58622;BME280;44389;51.578;5.456;2023-03-15T04:48:27;101377.88;;;-0.38;100.00
58622;BME280;44389;51.578;5.456;2023-03-15T04:50:52;101380.00;;;-0.43;100.00
58622;BME280;44389;51.578;5.456;2023-03-15T04:53:17;101381.28;;;-0.48;100.00
58622;BME280;44389;51.578;5.456;2023-03-15T04:55:42;101382.06;;;-0.49;100.00
58622;BME280;44389;51.578;5.456;2023-03-15T04:58:08;101381.16;;;-0.50;100.00
58622;BME280;44389;51.578;5.456;2023-03-15T05:00:33;101388.88;;;-0.48;100.00
58622;BME280;44389;51.578;5.456;2023-03-15T05:02:58;101396.22;;;-0.51;100.00
58622;BME280;44389;51.578;5.456;2023-03-15T05:05:23;101397.72;;;-0.53;100.00
58622;BME280;44389;51.578;5.456;2023-03-15T05:07:49;101401.03;;;-0.54;100.00
58622;BME280;44389;51.578;5.456;2023-03-15T05:10:15;101398.25;;;-0.47;100.00
58622;BME280;44389;51.578;5.456;2023-03-15T05:12:40;101404.06;;;-0.58;100.00
58622;BME280;44389;51.578;5.456;2023-03-15T05:15:06;101415.97;;;-0.57;100.00
58622;BME280;44389;51.578;5.456;2023-03-15T05:17:32;101414.06;;;-0.60;100.00
58622;BME280;44389;51.578;5.456;2023-03-15T05:19:58;101412.16;;;-0.73;100.00
58622;BME280;44389;51.578;5.456;2023-03-15T05:22:25;101422.22;;;-0.93;100.00
58622;BME280;44389;51.578;5.456;2023-03-15T05:24:51;101418.44;;;-0.88;100.00
58622;BME280;44389;51.578;5.456;2023-03-15T05:27:18;101415.56;;;-0.82;100.00
58622;BME280;44389;51.578;5.456;2023-03-15T05:29:44;101418.97;;;-0.82;100.00
58622;BME280;44389;51.578;5.456;2023-03-15T05:32:09;101420.47;;;-0.84;100.00
58622;BME280;44389;51.578;5.456;2023-03-15T05:34:35;101424.53;;;-0.86;100.00
58622;BME280;44389;51.578;5.456;2023-03-15T05:37:00;101424.91;;;-0.81;100.00
58622;BME280;44389;51.578;5.456;2023-03-15T05:39:25;101434.41;;;-0.79;100.00
58622;BME280;44389;51.578;5.456;2023-03-15T05:41:51;101431.41;;;-0.75;100.00
58622;BME280;44389;51.578;5.456;2023-03-15T05:44:16;101437.56;;;-0.81;100.00
58622;BME280;44389;51.578;5.456;2023-03-15T05:46:42;101436.06;;;-0.79;100.00
58622;BME280;44389;51.578;5.456;2023-03-15T05:49:07;101443.03;;;-0.77;100.00
58622;BME280;44389;51.578;5.456;2023-03-15T05:51:33;101444.06;;;-0.75;100.00
58622;BME280;44389;51.578;5.456;2023-03-15T05:53:58;101444.19;;;-0.73;100.00
58622;BME280;44389;51.578;5.456;2023-03-15T05:56:24;101447.34;;;-0.65;100.00
58622;BME280;44389;51.578;5.456;2023-03-15T05:58:49;101453.16;;;-0.67;100.00
58622;BME280;44389;51.578;5.456;2023-03-15T06:01:14;101451.91;;;-0.72;100.00
58622;BME280;44389;51.578;5.456;2023-03-15T06:03:40;101453.69;;;-0.71;100.00
58622;BME280;44389;51.578;5.456;2023-03-15T06:06:05;101457.97;;;-0.80;100.00
58622;BME280;44389;51.578;5.456;2023-03-15T06:08:30;101471.63;;;-0.78;100.00
58622;BME280;44389;51.578;5.456;2023-03-15T06:10:56;101477.09;;;-0.73;100.00
58622;BME280;44389;51.578;5.456;2023-03-15T06:13:21;101485.31;;;-0.76;100.00
58622;BME280;44389;51.578;5.456;2023-03-15T06:15:46;101485.03;;;-0.79;100.00
58622;BME280;44389;51.578;5.456;2023-03-15T06:18:12;101486.31;;;-0.74;100.00
58622;BME280;44389;51.578;5.456;2023-03-15T06:20:38;101488.84;;;-0.74;100.00
58622;BME280;44389;51.578;5.456;2023-03-15T06:23:03;101492.41;;;-0.72;100.00
58622;BME280;44389;51.578;5.456;2023-03-15T06:25:29;101490.00;;;-0.70;100.00
58622;BME280;44389;51.578;5.456;2023-03-15T06:27:54;101502.03;;;-0.68;100.00
58622;BME280;44389;51.578;5.456;2023-03-15T06:30:20;101499.50;;;-0.68;100.00
58622;BME280;44389;51.578;5.456;2023-03-15T06:32:45;101512.44;;;-0.64;100.00
58622;BME280;44389;51.578;5.456;2023-03-15T06:35:11;101518.78;;;-0.59;100.00
58622;BME280;44389;51.578;5.456;2023-03-15T06:37:36;101525.34;;;-0.51;100.00
58622;BME280;44389;51.578;5.456;2023-03-15T06:40:06;101529.41;;;-0.43;100.00
58622;BME280;44389;51.578;5.456;2023-03-15T06:42:33;101531.22;;;-0.31;100.00
58622;BME280;44389;51.578;5.456;2023-03-15T06:44:58;101526.28;;;-0.20;100.00
58622;BME280;44389;51.578;5.456;2023-03-15T06:47:24;101531.25;;;-0.11;100.00
58622;BME280;44389;51.578;5.456;2023-03-15T06:49:49;101533.91;;;0.01;100.00
58622;BME280;44389;51.578;5.456;2023-03-15T06:52:15;101544.69;;;0.09;100.00
58622;BME280;44389;51.578;5.456;2023-03-15T06:54:41;101549.25;;;0.13;100.00
58622;BME280;44389;51.578;5.456;2023-03-15T06:57:06;101551.03;;;0.14;100.00
58622;BME280;44389;51.578;5.456;2023-03-15T06:59:31;101559.66;;;0.16;100.00
58622;BME280;44389;51.578;5.456;2023-03-15T07:01:57;101557.47;;;0.10;100.00
58622;BME280;44389;51.578;5.456;2023-03-15T07:04:22;101560.91;;;0.11;100.00
58622;BME280;44389;51.578;5.456;2023-03-15T07:06:47;101567.25;;;0.16;100.00
58622;BME280;44389;51.578;5.456;2023-03-15T07:09:13;101571.06;;;0.11;100.00
58622;BME280;44389;51.578;5.456;2023-03-15T07:11:38;101575.63;;;0.15;100.00
58622;BME280;44389;51.578;5.456;2023-03-15T07:14:03;101587.03;;;0.30;100.00
58622;BME280;44389;51.578;5.456;2023-03-15T07:16:28;101592.63;;;0.37;100.00
58622;BME280;44389;51.578;5.456;2023-03-15T07:18:54;101596.66;;;0.45;100.00
58622;BME280;44389;51.578;5.456;2023-03-15T07:21:20;101596.13;;;0.59;100.00
58622;BME280;44389;51.578;5.456;2023-03-15T07:23:46;101603.91;;;0.61;100.00
58622;BME280;44389;51.578;5.456;2023-03-15T07:26:11;101601.72;;;0.65;100.00
58622;BME280;44389;51.578;5.456;2023-03-15T07:28:36;101609.72;;;0.70;100.00
58622;BME280;44389;51.578;5.456;2023-03-15T07:31:04;101608.31;;;0.84;100.00
58622;BME280;44389;51.578;5.456;2023-03-15T07:33:31;101615.41;;;0.88;100.00
58622;BME280;44389;51.578;5.456;2023-03-15T07:35:57;101609.69;;;0.91;100.00
58622;BME280;44389;51.578;5.456;2023-03-15T07:38:24;101617.19;;;0.89;100.00
58622;BME280;44389;51.578;5.456;2023-03-15T07:40:50;101624.28;;;0.93;100.00
58622;BME280;44389;51.578;5.456;2023-03-15T07:43:16;101624.28;;;0.93;100.00
58622;BME280;44389;51.578;5.456;2023-03-15T07:45:43;101626.94;;;0.95;100.00
58622;BME280;44389;51.578;5.456;2023-03-15T07:48:08;101628.19;;;1.00;100.00
58622;BME280;44389;51.578;5.456;2023-03-15T07:50:34;101630.94;;;1.13;100.00
58622;BME280;44389;51.578;5.456;2023-03-15T07:52:59;101639.06;;;1.20;100.00
58622;BME280;44389;51.578;5.456;2023-03-15T07:55:25;101641.84;;;1.23;100.00
58622;BME280;44389;51.578;5.456;2023-03-15T07:57:51;101645.34;;;1.35;100.00
58622;BME280;44389;51.578;5.456;2023-03-15T08:00:16;101646.47;;;1.49;100.00
58622;BME280;44389;51.578;5.456;2023-03-15T08:02:42;101647.97;;;1.47;100.00
58622;BME280;44389;51.578;5.456;2023-03-15T08:05:07;101654.81;;;1.58;100.00
58622;BME280;44389;51.578;5.456;2023-03-15T08:07:34;101655.94;;;1.62;100.00
58622;BME280;44389;51.578;5.456;2023-03-15T08:10:00;101673.91;;;1.75;100.00
58622;BME280;44389;51.578;5.456;2023-03-15T08:12:26;101681.25;;;1.83;100.00
58622;BME280;44389;51.578;5.456;2023-03-15T08:14:52;101681.59;;;1.87;100.00
58622;BME280;44389;51.578;5.456;2023-03-15T08:17:17;101682.78;;;2.03;100.00
58622;BME280;44389;51.578;5.456;2023-03-15T08:19:43;101689.91;;;2.07;100.00
58622;BME280;44389;51.578;5.456;2023-03-15T08:22:09;101691.16;;;2.12;100.00
58622;BME280;44389;51.578;5.456;2023-03-15T08:24:35;101694.16;;;2.18;100.00
58622;BME280;44389;51.578;5.456;2023-03-15T08:27:00;101699.44;;;2.32;100.00
58622;BME280;44389;51.578;5.456;2023-03-15T08:29:26;101697.81;;;2.44;100.00
58622;BME280;44389;51.578;5.456;2023-03-15T08:31:52;101696.22;;;2.56;100.00
58622;BME280;44389;51.578;5.456;2023-03-15T08:34:17;101703.19;;;2.59;100.00
58622;BME280;44389;51.578;5.456;2023-03-15T08:36:45;101708.09;;;2.68;100.00
58622;BME280;44389;51.578;5.456;2023-03-15T08:39:10;101713.78;;;2.87;100.00
58622;BME280;44389;51.578;5.456;2023-03-15T08:41:36;101716.84;;;2.71;100.00
58622;BME280;44389;51.578;5.456;2023-03-15T08:44:01;101710.09;;;2.72;100.00
58622;BME280;44389;51.578;5.456;2023-03-15T08:46:26;101710.66;;;2.79;100.00
58622;BME280;44389;51.578;5.456;2023-03-15T08:48:52;101713.88;;;2.89;100.00
58622;BME280;44389;51.578;5.456;2023-03-15T08:51:17;101722.22;;;2.98;100.00
58622;BME280;44389;51.578;5.456;2023-03-15T08:53:44;101729.44;;;3.04;100.00
58622;BME280;44389;51.578;5.456;2023-03-15T08:56:09;101731.78;;;3.12;100.00
58622;BME280;44389;51.578;5.456;2023-03-15T08:58:34;101729.00;;;3.21;100.00
58622;BME280;44389;51.578;5.456;2023-03-15T09:01:00;101733.38;;;3.46;100.00
58622;BME280;44389;51.578;5.456;2023-03-15T09:03:25;101733.69;;;3.62;100.00
58622;BME280;44389;51.578;5.456;2023-03-15T09:05:55;101736.47;;;3.66;100.00
58622;BME280;44389;51.578;5.456;2023-03-15T09:08:20;101740.22;;;3.71;100.00
58622;BME280;44389;51.578;5.456;2023-03-15T09:11:09;101739.31;;;3.82;100.00
58622;BME280;44389;51.578;5.456;2023-03-15T09:13:35;101742.81;;;4.08;100.00
58622;BME280;44389;51.578;5.456;2023-03-15T09:16:00;101737.88;;;4.35;100.00
58622;BME280;44389;51.578;5.456;2023-03-15T09:18:27;101747.38;;;4.49;100.00
58622;BME280;44389;51.578;5.456;2023-03-15T09:20:52;101739.41;;;4.95;100.00
58622;BME280;44389;51.578;5.456;2023-03-15T09:23:18;101737.53;;;5.06;100.00
58622;BME280;44389;51.578;5.456;2023-03-15T09:25:43;101739.91;;;5.16;100.00
58622;BME280;44389;51.578;5.456;2023-03-15T09:28:09;101739.13;;;5.04;100.00
58622;BME280;44389;51.578;5.456;2023-03-15T09:30:37;101739.56;;;5.37;100.00
58622;BME280;44389;51.578;5.456;2023-03-15T09:33:03;101746.63;;;5.41;99.52
58622;BME280;44389;51.578;5.456;2023-03-15T09:35:28;101750.78;;;5.79;96.47
58622;BME280;44389;51.578;5.456;2023-03-15T09:37:53;101743.75;;;6.17;91.42
58622;BME280;44389;51.578;5.456;2023-03-15T09:40:31;101739.72;;;6.20;91.01
58622;BME280;44389;51.578;5.456;2023-03-15T09:48:15;101745.56;;;7.49;82.30
58622;BME280;44389;51.578;5.456;2023-03-15T09:50:53;101751.38;;;7.62;78.34
58622;BME280;44389;51.578;5.456;2023-03-15T09:53:31;101749.31;;;8.17;79.54
58622;BME280;44389;51.578;5.456;2023-03-15T09:55:58;101743.19;;;8.15;75.59
58622;BME280;44389;51.578;5.456;2023-03-15T09:58:25;101748.72;;;8.54;71.31
58622;BME280;44389;51.578;5.456;2023-03-15T10:01:00;101743.34;;;8.50;69.23
58622;BME280;44389;51.578;5.456;2023-03-15T10:03:47;101747.72;;;8.36;75.30
58622;BME280;44389;51.578;5.456;2023-03-15T10:06:27;101752.00;;;8.04;75.93
58622;BME280;44389;51.578;5.456;2023-03-15T10:09:09;101749.09;;;7.66;77.54
58622;BME280;44389;51.578;5.456;2023-03-15T10:11:58;101753.53;;;8.48;73.89
58622;BME280;44389;51.578;5.456;2023-03-15T10:14:35;101744.59;;;9.62;68.98
58622;BME280;44389;51.578;5.456;2023-03-15T10:17:11;101749.88;;;9.29;65.70
58622;BME280;44389;51.578;5.456;2023-03-15T10:19:54;101754.97;;;8.60;63.66
58622;BME280;44389;51.578;5.456;2023-03-15T10:22:36;101752.81;;;8.19;64.49
58622;BME280;44389;51.578;5.456;2023-03-15T10:25:15;101751.72;;;7.83;65.82
58622;BME280;44389;51.578;5.456;2023-03-15T10:30:25;101751.03;;;9.17;61.42
58622;BME280;44389;51.578;5.456;2023-03-15T10:33:13;101748.78;;;10.33;64.54
58622;BME280;44389;51.578;5.456;2023-03-15T10:35:39;101749.44;;;11.50;60.07
58622;BME280;44389;51.578;5.456;2023-03-15T10:38:18;101751.69;;;12.07;56.13
58622;BME280;44389;51.578;5.456;2023-03-15T10:40:45;101760.59;;;12.15;48.68
58622;BME280;44389;51.578;5.456;2023-03-15T10:43:32;101749.28;;;13.10;54.34
58622;BME280;44389;51.578;5.456;2023-03-15T10:46:09;101755.03;;;13.80;46.84
58622;BME280;44389;51.578;5.456;2023-03-15T10:48:37;101757.00;;;14.16;43.43
58622;BME280;44389;51.578;5.456;2023-03-15T10:51:04;101752.38;;;14.99;53.54
58622;BME280;44389;51.578;5.456;2023-03-15T10:53:30;101761.38;;;14.19;44.38
58622;BME280;44389;51.578;5.456;2023-03-15T10:55:59;101768.63;;;14.31;44.97
58622;BME280;44389;51.578;5.456;2023-03-15T10:58:27;101765.84;;;14.25;40.63
58622;BME280;44389;51.578;5.456;2023-03-15T11:01:03;101764.31;;;14.62;41.03
58622;BME280;44389;51.578;5.456;2023-03-15T11:03:32;101776.59;;;14.37;39.93
58622;BME280;44389;51.578;5.456;2023-03-15T11:05:58;101783.78;;;15.10;37.37
58622;BME280;44389;51.578;5.456;2023-03-15T11:08:38;101777.41;;;14.65;39.60
58622;BME280;44389;51.578;5.456;2023-03-15T11:11:05;101779.25;;;15.36;38.48
58622;BME280;44389;51.578;5.456;2023-03-15T11:13:33;101787.22;;;16.17;39.18
58622;BME280;44389;51.578;5.456;2023-03-15T11:18:46;101792.09;;;16.44;36.43
58622;BME280;44389;51.578;5.456;2023-03-15T11:21:14;101793.22;;;16.15;34.47
58622;BME280;44389;51.578;5.456;2023-03-15T11:23:45;101798.28;;;14.70;38.37
58622;BME280;44389;51.578;5.456;2023-03-15T11:26:20;101804.44;;;14.44;37.34
58622;BME280;44389;51.578;5.456;2023-03-15T11:28:52;101796.81;;;14.49;32.72
58622;BME280;44389;51.578;5.456;2023-03-15T11:31:25;101797.78;;;14.53;36.20
58622;BME280;44389;51.578;5.456;2023-03-15T11:33:56;101801.16;;;13.91;35.26
58622;BME280;44389;51.578;5.456;2023-03-15T11:36:25;101808.38;;;13.22;34.19
58622;BME280;44389;51.578;5.456;2023-03-15T11:38:51;101795.03;;;13.36;37.76
58622;BME280;44389;51.578;5.456;2023-03-15T11:41:23;101799.84;;;14.05;37.28
58622;BME280;44389;51.578;5.456;2023-03-15T11:44:02;101796.75;;;13.61;37.68
58622;BME280;44389;51.578;5.456;2023-03-15T11:46:39;101794.50;;;14.00;38.60
58622;BME280;44389;51.578;5.456;2023-03-15T11:49:30;101785.34;;;14.71;39.30
58622;BME280;44389;51.578;5.456;2023-03-15T11:51:58;101783.34;;;14.93;36.09
58622;BME280;44389;51.578;5.456;2023-03-15T11:54:28;101783.44;;;15.31;36.21
58622;BME280;44389;51.578;5.456;2023-03-15T11:57:02;101788.19;;;15.12;33.13
58622;BME280;44389;51.578;5.456;2023-03-15T11:59:30;101781.59;;;15.62;33.99
58622;BME280;44389;51.578;5.456;2023-03-15T12:07:12;101777.75;;;16.21;32.42
58622;BME280;44389;51.578;5.456;2023-03-15T12:12:35;101778.13;;;15.25;34.93
58622;BME280;44389;51.578;5.456;2023-03-15T12:22:34;101782.66;;;13.53;36.17
58622;BME280;44389;51.578;5.456;2023-03-15T12:25:31;101771.16;;;13.99;37.44
58622;BME280;44389;51.578;5.456;2023-03-15T12:28:04;101772.47;;;13.06;34.56
58622;BME280;44389;51.578;5.456;2023-03-15T12:30:38;101771.41;;;13.26;35.09
58622;BME280;44389;51.578;5.456;2023-03-15T12:33:13;101780.22;;;13.06;35.29
58622;BME280;44389;51.578;5.456;2023-03-15T12:35:40;101780.19;;;12.56;35.33
58622;BME280;44389;51.578;5.456;2023-03-15T12:38:18;101785.16;;;12.27;37.09
58622;BME280;44389;51.578;5.456;2023-03-15T12:40:53;101779.09;;;11.60;38.94
58622;BME280;44389;51.578;5.456;2023-03-15T12:43:44;101778.63;;;11.07;39.55
58622;BME280;44389;51.578;5.456;2023-03-15T12:54:22;101779.41;;;11.67;41.67
58622;BME280;44389;51.578;5.456;2023-03-15T12:56:53;101775.06;;;12.57;36.67
58622;BME280;44389;51.578;5.456;2023-03-15T13:01:51;101782.53;;;12.49;36.21
58622;BME280;44389;51.578;5.456;2023-03-15T13:04:16;101781.72;;;12.99;37.97
58622;BME280;44389;51.578;5.456;2023-03-15T13:12:37;101786.50;;;11.73;39.06
58622;BME280;44389;51.578;5.456;2023-03-15T13:15:16;101771.38;;;10.59;39.77
58622;BME280;44389;51.578;5.456;2023-03-15T13:17:47;101777.50;;;10.23;40.36
58622;BME280;44389;51.578;5.456;2023-03-15T13:20:39;101778.19;;;10.37;40.96
58622;BME280;44389;51.578;5.456;2023-03-15T13:23:26;101780.19;;;9.88;41.55
58622;BME280;44389;51.578;5.456;2023-03-15T13:26:02;101778.28;;;9.48;42.92
58622;BME280;44389;51.578;5.456;2023-03-15T13:31:09;101774.88;;;11.00;38.96
58622;BME280;44389;51.578;5.456;2023-03-15T13:33:35;101766.88;;;11.56;36.85
58622;BME280;44389;51.578;5.456;2023-03-15T13:36:13;101774.94;;;11.21;36.48
58622;BME280;44389;51.578;5.456;2023-03-15T13:38:49;101761.66;;;11.33;38.00
58622;BME280;44389;51.578;5.456;2023-03-15T13:43:53;101769.94;;;11.04;38.20
58622;BME280;44389;51.578;5.456;2023-03-15T13:46:22;101773.47;;;11.28;36.41